createdAt,value
2019-05-30T00:02:17.532Z,7.43
2019-05-30T00:05:23.018Z,4.97
2019-05-30T00:08:28.208Z,4.67
2019-05-30T00:11:33.390Z,4.17
2019-05-30T00:14:38.529Z,6.40
2019-05-30T00:17:43.654Z,5.07
2019-05-30T00:20:48.849Z,4.50
2019-05-30T00:23:54.075Z,4.00
2019-05-30T00:27:00.268Z,4.20
2019-05-30T00:30:23.356Z,6.77
2019-05-30T00:33:14.002Z,4.53
2019-05-30T00:36:19.231Z,6.40
2019-05-30T00:39:24.443Z,5.47
2019-05-30T00:42:29.594Z,5.80
2019-05-30T00:45:34.796Z,3.63
2019-05-30T00:48:39.901Z,6.60
2019-05-30T00:51:45.071Z,4.47
2019-05-30T00:54:50.215Z,3.33
2019-05-30T00:57:56.589Z,3.70
2019-05-30T01:01:03.083Z,3.40
2019-05-30T01:04:08.426Z,3.40
2019-05-30T01:07:13.571Z,3.70
2019-05-30T01:10:19.492Z,3.63
2019-05-30T01:13:24.763Z,4.00
2019-05-30T01:16:29.902Z,4.40
2019-05-30T01:19:35.048Z,4.03
2019-05-30T01:22:40.130Z,9.40
2019-05-30T01:25:45.263Z,7.73
2019-05-30T01:28:50.637Z,10.03
2019-05-30T01:31:55.817Z,10.17
2019-05-30T01:35:01.984Z,5.83
2019-05-30T01:38:08.401Z,6.37
2019-05-30T01:41:13.583Z,7.47
2019-05-30T01:44:18.702Z,6.50
2019-05-30T01:47:23.817Z,7.30
2019-05-30T01:50:28.921Z,36.03
2019-05-30T01:53:34.279Z,12.70
2019-05-30T01:56:39.398Z,31.63
2019-05-30T01:59:44.767Z,16.47
2019-05-30T02:02:49.914Z,53.27
2019-05-30T02:05:55.121Z,57.27
2019-05-30T02:09:01.124Z,17.23
2019-05-30T02:12:07.851Z,20.97
2019-05-30T02:15:13.293Z,16.67
2019-05-30T02:18:18.456Z,16.60
2019-05-30T02:21:23.595Z,32.17
2019-05-30T02:24:28.791Z,113.87
2019-05-30T02:27:35.133Z,122.63
2019-05-30T02:30:40.341Z,161.83
2019-05-30T02:33:45.603Z,93.30
2019-05-30T02:36:51.786Z,49.30
2019-05-30T02:40:00.189Z,21.93
2019-05-30T02:43:05.659Z,104.13
2019-05-30T02:46:12.585Z,60.23
2019-05-30T02:49:17.886Z,75.27
2019-05-30T02:52:23.081Z,50.57
2019-05-30T02:55:28.295Z,102.43
2019-05-30T02:58:33.444Z,126.90
2019-05-30T03:01:58.350Z,108.67
2019-05-30T03:04:45.569Z,74.83
2019-05-30T03:07:50.785Z,119.13
2019-05-30T03:10:55.986Z,58.03
2019-05-30T03:14:04.489Z,51.87
2019-05-30T03:17:11.998Z,58.70
2019-05-30T03:20:22.748Z,17.93
2019-05-30T03:23:23.828Z,140.43
2019-05-30T03:26:29.480Z,30.90
2019-05-30T03:29:34.638Z,12.10
2019-05-30T03:33:03.847Z,25.47
2019-05-30T03:35:47.067Z,27.43
2019-05-30T03:38:52.284Z,80.43
2019-05-30T03:41:57.414Z,45.10
2019-05-30T03:45:04.221Z,12.67
2019-05-30T03:48:14.287Z,9.53
2019-05-30T03:51:21.397Z,23.57
2019-05-30T03:54:27.893Z,111.17
2019-05-30T03:57:37.072Z,81.57
2019-05-30T04:00:51.473Z,14.60
2019-05-30T04:04:09.221Z,29.40
2019-05-30T04:07:20.449Z,33.13
2019-05-30T04:10:29.249Z,11.37
2019-05-30T04:13:55.488Z,29.20
2019-05-30T04:17:00.752Z,24.93
2019-05-30T04:20:09.308Z,7.70
2019-05-30T04:23:14.973Z,9.67
2019-05-30T04:26:21.297Z,6.07
2019-05-30T04:29:26.448Z,5.47
2019-05-30T04:32:32.630Z,7.97
2019-05-30T04:35:37.749Z,6.50
2019-05-30T04:38:43.037Z,8.33
2019-05-30T04:41:48.170Z,19.87
2019-05-30T04:44:53.422Z,22.80
2019-05-30T04:47:58.588Z,32.67
2019-05-30T04:51:03.757Z,18.40
2019-05-30T04:54:12.566Z,17.30
2019-05-30T04:57:16.929Z,57.53
2019-05-30T05:00:22.247Z,30.33
2019-05-30T05:03:44.168Z,29.40
2019-05-30T05:06:34.270Z,35.90
2019-05-30T05:09:39.466Z,28.67
2019-05-30T05:12:44.632Z,43.50
2019-05-30T05:15:49.796Z,30.63
2019-05-30T05:18:55.006Z,37.37
2019-05-30T05:22:00.161Z,30.63
2019-05-30T05:25:05.966Z,26.37
2019-05-30T05:28:11.270Z,37.93
2019-05-30T05:31:16.688Z,26.03
2019-05-30T05:34:22.796Z,21.40
2019-05-30T05:37:28.115Z,24.80
2019-05-30T05:40:33.360Z,33.97
2019-05-30T05:43:38.531Z,31.30
2019-05-30T05:46:43.687Z,29.17
2019-05-30T05:49:48.936Z,20.63
2019-05-30T05:52:54.178Z,22.33
2019-05-30T05:55:59.255Z,19.37
2019-05-30T05:59:04.431Z,14.30
2019-05-30T06:02:10.421Z,16.23
2019-05-30T06:05:16.007Z,17.07
2019-05-30T06:08:21.504Z,16.77
2019-05-30T06:11:26.809Z,18.50
2019-05-30T06:14:31.995Z,17.33
2019-05-30T06:17:37.170Z,16.97
2019-05-30T06:20:42.402Z,16.43
2019-05-30T06:23:47.606Z,17.57
2019-05-30T06:26:53.899Z,16.80
2019-05-30T06:29:59.110Z,18.97
2019-05-30T06:33:04.256Z,15.63
2019-05-30T06:36:09.702Z,17.87
2019-05-30T06:39:16.215Z,16.27
2019-05-30T06:42:21.738Z,15.77
2019-05-30T06:45:26.927Z,16.60
2019-05-30T06:48:32.125Z,18.17
2019-05-30T06:51:37.382Z,20.70
2019-05-30T06:54:42.745Z,18.43
2019-05-30T06:57:47.949Z,11.73
2019-05-30T07:00:53.071Z,9.67
2019-05-30T07:03:58.449Z,13.60
2019-05-30T07:07:05.947Z,11.40
2019-05-30T07:10:11.188Z,10.73
2019-05-30T07:13:16.624Z,9.93
2019-05-30T07:16:23.292Z,9.33
2019-05-30T07:19:29.499Z,8.93
2019-05-30T07:22:34.774Z,8.63
2019-05-30T07:25:40.004Z,10.87
2019-05-30T07:28:45.215Z,8.63
2019-05-30T07:31:50.375Z,8.77
2019-05-30T07:35:06.001Z,8.73
2019-05-30T07:38:03.459Z,8.77
2019-05-30T07:41:08.612Z,9.07
2019-05-30T07:44:13.802Z,8.53
2019-05-30T07:47:18.990Z,8.97
2019-05-30T07:50:24.205Z,10.70
2019-05-30T07:53:29.371Z,10.00
2019-05-30T07:56:35.202Z,10.63
2019-05-30T07:59:40.392Z,10.17
2019-05-30T08:02:45.528Z,10.17
2019-05-30T08:05:50.693Z,10.50
2019-05-30T08:08:55.854Z,10.07
2019-05-30T08:12:01.034Z,10.00
2019-05-30T08:15:07.226Z,8.13
2019-05-30T08:18:13.453Z,9.53
2019-05-30T08:21:18.677Z,7.80
2019-05-30T08:24:23.852Z,7.17
2019-05-30T08:27:32.361Z,7.10
2019-05-30T08:30:38.719Z,6.37
2019-05-30T08:33:47.263Z,6.50
2019-05-30T08:36:51.844Z,6.10
2019-05-30T08:39:57.105Z,8.57
2019-05-30T08:43:02.296Z,6.17
2019-05-30T08:46:07.700Z,4.50
2019-05-30T08:49:12.993Z,4.87
2019-05-30T08:52:18.184Z,4.57
2019-05-30T08:55:23.421Z,3.13
2019-05-30T08:58:28.729Z,3.10
2019-05-30T09:01:35.723Z,3.30
2019-05-30T09:04:41.994Z,2.80
2019-05-30T09:07:47.265Z,3.30
2019-05-30T09:10:52.485Z,2.37
2019-05-30T09:13:57.616Z,2.77
2019-05-30T09:17:02.864Z,2.47
2019-05-30T09:20:10.185Z,5.77
2019-05-30T09:23:15.402Z,2.87
2019-05-30T09:26:20.524Z,4.37
2019-05-30T09:29:25.634Z,2.57
2019-05-30T09:32:30.810Z,2.57
2019-05-30T09:35:36.113Z,2.90
2019-05-30T09:38:41.816Z,4.27
2019-05-30T09:41:47.750Z,2.53
2019-05-30T09:44:52.889Z,2.13
2019-05-30T09:47:58.193Z,3.20
2019-05-30T09:51:03.374Z,2.27
2019-05-30T09:54:08.567Z,1.83
2019-05-30T09:57:13.692Z,3.20
2019-05-30T10:00:19.704Z,2.23
2019-05-30T10:03:24.955Z,1.40
2019-05-30T10:06:30.395Z,1.70
2019-05-30T10:09:35.559Z,6.17
2019-05-30T10:12:41.682Z,2.40
2019-05-30T10:15:47.075Z,1.70
2019-05-30T10:18:52.886Z,2.60
2019-05-30T10:21:58.104Z,3.53
2019-05-30T10:25:03.455Z,3.83
2019-05-30T10:28:08.695Z,2.40
2019-05-30T10:31:13.818Z,1.77
2019-05-30T10:34:18.975Z,1.20
2019-05-30T10:37:24.206Z,1.93
2019-05-30T10:40:32.073Z,1.00
2019-05-30T10:43:36.308Z,1.03
2019-05-30T10:46:41.426Z,2.30
2019-05-30T10:49:48.031Z,1.23
2019-05-30T10:52:53.698Z,0.80
2019-05-30T10:55:59.920Z,1.30
2019-05-30T10:59:05.165Z,1.20
2019-05-30T11:02:10.411Z,1.00
2019-05-30T11:05:16.093Z,3.97
2019-05-30T11:08:24.269Z,1.77
2019-05-30T11:11:29.476Z,1.63
2019-05-30T11:14:34.581Z,0.90
2019-05-30T11:17:39.727Z,1.50
2019-05-30T11:20:44.906Z,1.23
2019-05-30T11:23:51.437Z,3.27
2019-05-30T11:26:57.238Z,1.60
2019-05-30T11:30:02.397Z,1.40
2019-05-30T11:33:07.674Z,3.30
2019-05-30T11:36:12.963Z,0.97
2019-05-30T11:39:18.117Z,2.97
2019-05-30T11:42:23.252Z,1.33
2019-05-30T11:45:28.436Z,2.70
2019-05-30T11:48:33.585Z,1.23
2019-05-30T11:51:38.819Z,1.20
2019-05-30T11:54:43.931Z,1.43
2019-05-30T11:57:50.011Z,1.00
2019-05-30T12:00:56.329Z,1.47
2019-05-30T12:04:01.657Z,1.83
2019-05-30T12:07:07.733Z,1.20
2019-05-30T12:10:13.103Z,1.40
2019-05-30T12:13:18.347Z,1.10
2019-05-30T12:16:23.500Z,5.87
2019-05-30T12:19:30.459Z,1.30
2019-05-30T12:22:35.571Z,2.70
2019-05-30T12:25:40.785Z,1.33
2019-05-30T12:28:46.020Z,1.57
2019-05-30T12:31:52.332Z,1.57
2019-05-30T12:34:58.381Z,1.33
2019-05-30T12:38:06.442Z,2.53
2019-05-30T12:41:10.472Z,1.53
2019-05-30T12:44:15.659Z,1.37
2019-05-30T12:47:20.935Z,2.17
2019-05-30T12:50:26.645Z,1.83
2019-05-30T12:53:31.830Z,1.60
2019-05-30T12:56:36.969Z,1.80
2019-05-30T12:59:42.130Z,1.40
2019-05-30T13:02:47.297Z,4.00
2019-05-30T13:05:52.548Z,1.60
2019-05-30T13:08:57.677Z,1.97
2019-05-30T13:12:02.834Z,1.10
2019-05-30T13:15:08.581Z,1.30
2019-05-30T13:18:13.849Z,1.20
2019-05-30T13:21:19.134Z,2.07
2019-05-30T13:24:26.251Z,2.20
2019-05-30T13:27:31.465Z,2.93
2019-05-30T13:30:36.942Z,1.30
2019-05-30T13:33:42.033Z,2.37
2019-05-30T13:36:47.185Z,1.33
2019-05-30T13:39:52.334Z,1.40
2019-05-30T13:42:57.811Z,1.60
2019-05-30T13:46:04.441Z,1.70
2019-05-30T13:49:09.789Z,2.90
2019-05-30T13:52:14.999Z,1.63
2019-05-30T13:55:20.841Z,2.07
2019-05-30T13:58:25.870Z,2.80
2019-05-30T14:01:31.053Z,2.70
2019-05-30T14:04:36.157Z,3.20
2019-05-30T14:07:41.393Z,1.60
2019-05-30T14:10:46.594Z,3.07
2019-05-30T14:13:51.787Z,2.07
2019-05-30T14:16:56.988Z,2.97
2019-05-30T14:20:03.016Z,3.13
2019-05-30T14:23:09.377Z,2.33
2019-05-30T14:26:14.545Z,2.90
2019-05-30T14:29:19.686Z,2.40
2019-05-30T14:32:24.835Z,3.13
2019-05-30T14:35:29.992Z,2.57
2019-05-30T14:38:35.288Z,2.80
2019-05-30T14:41:40.465Z,3.33
2019-05-30T14:44:45.659Z,2.00
2019-05-30T14:47:50.817Z,4.40
2019-05-30T14:50:55.999Z,2.47
2019-05-30T14:54:01.224Z,2.47
2019-05-30T14:57:06.799Z,2.20
2019-05-30T15:00:14.533Z,2.37
2019-05-30T15:03:19.715Z,1.80
2019-05-30T15:06:24.895Z,1.80
2019-05-30T15:09:29.995Z,4.00
2019-05-30T15:12:35.186Z,1.60
2019-05-30T15:15:40.343Z,1.20
2019-05-30T15:18:45.489Z,3.63
2019-05-30T15:21:50.713Z,2.40
2019-05-30T15:24:55.931Z,2.23
2019-05-30T15:28:01.139Z,2.30
2019-05-30T15:31:06.829Z,3.87
2019-05-30T15:34:12.599Z,1.30
2019-05-30T15:37:17.756Z,1.37
2019-05-30T15:40:22.920Z,2.50
2019-05-30T15:43:28.050Z,3.97
2019-05-30T15:46:33.286Z,2.73
2019-05-30T15:49:38.463Z,1.93
2019-05-30T15:52:43.612Z,1.97
2019-05-30T15:55:48.859Z,1.70
2019-05-30T15:58:54.344Z,3.83
2019-05-30T16:01:59.576Z,2.20
2019-05-30T16:05:05.799Z,2.07
2019-05-30T16:08:11.129Z,2.33
2019-05-30T16:11:17.009Z,3.53
2019-05-30T16:14:22.254Z,2.37
2019-05-30T16:17:27.502Z,1.87
2019-05-30T16:20:32.760Z,1.67
2019-05-30T16:23:37.952Z,3.20
2019-05-30T16:26:43.146Z,2.53
2019-05-30T16:29:48.283Z,2.50
2019-05-30T16:32:53.450Z,1.83
2019-05-30T16:35:58.549Z,3.47
2019-05-30T16:39:03.869Z,1.80
2019-05-30T16:42:09.636Z,1.30
2019-05-30T16:45:19.494Z,1.07
2019-05-30T16:48:22.536Z,1.70
2019-05-30T16:51:27.683Z,2.60
2019-05-30T16:54:32.905Z,3.10
2019-05-30T16:57:38.184Z,1.97
2019-05-30T17:00:44.265Z,3.03
2019-05-30T17:03:49.426Z,1.80
2019-05-30T17:06:54.555Z,2.13
2019-05-30T17:09:59.800Z,1.50
2019-05-30T17:13:04.967Z,1.20
2019-05-30T17:16:10.297Z,1.80
2019-05-30T17:19:16.411Z,2.50
2019-05-30T17:22:22.782Z,2.90
2019-05-30T17:25:27.991Z,3.03
2019-05-30T17:28:34.280Z,2.33
2019-05-30T17:31:39.473Z,1.47
2019-05-30T17:34:44.640Z,2.47
2019-05-30T17:37:49.770Z,1.50
2019-05-30T17:40:56.386Z,1.27
2019-05-30T17:44:01.575Z,3.37
2019-05-30T17:47:06.797Z,1.47
2019-05-30T17:50:13.011Z,1.93
2019-05-30T17:53:18.168Z,2.13
2019-05-30T17:56:24.019Z,1.67
2019-05-30T17:59:30.409Z,1.07
2019-05-30T18:02:35.740Z,2.07
2019-05-30T18:05:43.016Z,0.93
2019-05-30T18:08:48.190Z,2.43
2019-05-30T18:11:54.228Z,1.57
2019-05-30T18:14:59.369Z,2.57
2019-05-30T18:18:04.880Z,3.70
2019-05-30T18:21:10.206Z,2.07
2019-05-30T18:24:15.469Z,1.90
2019-05-30T18:27:21.706Z,1.10
2019-05-30T18:30:39.780Z,3.60
2019-05-30T18:33:45.226Z,2.47
2019-05-30T18:36:51.890Z,2.17
2019-05-30T18:39:57.503Z,1.53
2019-05-30T18:43:02.667Z,1.90
2019-05-30T18:46:08.173Z,2.53
2019-05-30T18:49:16.570Z,4.27
2019-05-30T18:52:21.780Z,4.07
2019-05-30T18:55:26.967Z,2.17
2019-05-30T18:58:33.271Z,1.70
2019-05-30T19:01:38.589Z,1.47
2019-05-30T19:04:43.737Z,1.97
2019-05-30T19:07:48.938Z,1.70
2019-05-30T19:10:54.163Z,3.20
2019-05-30T19:13:59.388Z,1.93
2019-05-30T19:17:05.681Z,2.70
2019-05-30T19:20:12.754Z,3.57
2019-05-30T19:23:19.607Z,1.87
2019-05-30T19:26:24.808Z,1.80
2019-05-30T19:29:31.067Z,2.73
2019-05-30T19:32:36.958Z,2.77
2019-05-30T19:35:42.246Z,2.07
2019-05-30T19:38:47.420Z,2.47
2019-05-30T19:41:57.103Z,2.50
2019-05-30T19:44:59.536Z,5.50
2019-05-30T19:48:04.712Z,2.90
2019-05-30T19:51:10.148Z,4.10
2019-05-30T19:54:15.480Z,3.33
2019-05-30T19:57:20.709Z,4.83
2019-05-30T20:00:26.577Z,3.93
2019-05-30T20:03:38.472Z,4.07
2019-05-30T20:06:38.824Z,2.93
2019-05-30T20:09:43.920Z,1.73
2019-05-30T20:12:50.506Z,3.87
2019-05-30T20:15:55.698Z,3.10
2019-05-30T20:19:00.997Z,2.73
2019-05-30T20:22:06.285Z,3.17
2019-05-30T20:25:11.631Z,2.73
2019-05-30T20:28:17.028Z,1.30
2019-05-30T20:31:22.258Z,5.67
2019-05-30T20:34:27.495Z,1.53
2019-05-30T20:37:32.697Z,5.27
2019-05-30T20:40:38.862Z,2.97
2019-05-30T20:43:44.253Z,2.73
2019-05-30T20:46:49.471Z,3.63
2019-05-30T20:49:54.698Z,3.47
2019-05-30T20:52:59.857Z,1.70
2019-05-30T20:56:05.049Z,2.33
2019-05-30T20:59:10.627Z,3.00
2019-05-30T21:02:15.888Z,2.97
2019-05-30T21:05:21.182Z,3.57
2019-05-30T21:08:26.703Z,3.40
2019-05-30T21:11:33.600Z,5.57
2019-05-30T21:14:41.400Z,3.10
2019-05-30T21:17:47.354Z,2.40
2019-05-30T21:20:52.607Z,2.10
2019-05-30T21:23:57.777Z,4.80
2019-05-30T21:27:02.945Z,3.13
2019-05-30T21:30:08.636Z,4.73
2019-05-30T21:33:13.852Z,5.60
2019-05-30T21:36:19.024Z,2.83
2019-05-30T21:39:24.286Z,2.87
2019-05-30T21:42:29.455Z,2.67
2019-05-30T21:45:34.574Z,3.20
2019-05-30T21:48:40.830Z,5.27
2019-05-30T21:51:46.139Z,3.57
2019-05-30T21:54:51.356Z,2.47
2019-05-30T21:57:56.535Z,3.47
2019-05-30T22:01:25.297Z,4.77
2019-05-30T22:04:30.492Z,3.60
2019-05-30T22:07:36.908Z,5.23
2019-05-30T22:10:43.086Z,2.57
2019-05-30T22:13:49.438Z,3.40
2019-05-30T22:16:54.834Z,3.67
2019-05-30T22:19:59.922Z,2.73
2019-05-30T22:23:05.145Z,2.33
2019-05-30T22:26:10.488Z,4.77
2019-05-30T22:29:15.726Z,5.77
2019-05-30T22:32:20.854Z,2.20
2019-05-30T22:35:26.029Z,4.23
2019-05-30T22:38:31.134Z,2.67
2019-05-30T22:41:36.301Z,3.60
2019-05-30T22:44:41.463Z,2.70
2019-05-30T22:47:46.650Z,3.90
2019-05-30T22:50:52.883Z,4.17
2019-05-30T22:53:57.963Z,4.90
2019-05-30T22:57:03.096Z,3.20
2019-05-30T23:00:08.467Z,3.60
2019-05-30T23:03:13.763Z,2.73
2019-05-30T23:06:19.028Z,3.87
2019-05-30T23:09:24.193Z,3.20
2019-05-30T23:12:29.360Z,3.97
2019-05-30T23:15:34.595Z,4.27
2019-05-30T23:18:39.731Z,2.87
2019-05-30T23:21:44.889Z,3.60
2019-05-30T23:24:52.053Z,3.77
2019-05-30T23:27:57.638Z,4.53
2019-05-30T23:31:02.888Z,3.57
2019-05-30T23:34:07.997Z,3.17
2019-05-30T23:37:13.244Z,7.23
2019-05-30T23:40:18.673Z,3.73
2019-05-30T23:43:23.866Z,2.90
2019-05-30T23:46:29.010Z,3.27
2019-05-30T23:49:34.309Z,4.97
2019-05-30T23:52:39.411Z,3.40
2019-05-30T23:55:44.574Z,4.60
2019-05-30T23:58:50.534Z,2.90
